createdAt,value
2018-11-21T00:01:21.330Z,100524.87
2018-11-21T00:03:51.763Z,100532.08
2018-11-21T00:06:22.017Z,100527.98
2018-11-21T00:08:51.448Z,100528.63
2018-11-21T00:11:23.202Z,100540.14
2018-11-21T00:13:52.944Z,100541.94
2018-11-21T00:16:23.204Z,100547.36
2018-11-21T00:18:53.242Z,100550.96
2018-11-21T00:21:22.884Z,100560.77
2018-11-21T00:24:37.436Z,100558.77
2018-11-21T00:27:06.603Z,100559.84
2018-11-21T00:29:35.839Z,100555.15
2018-11-21T00:32:24.532Z,100563.88
2018-11-21T00:34:53.706Z,100561.84
2018-11-21T00:37:23.980Z,100564.52
2018-11-21T00:39:54.413Z,100566.44
2018-11-21T00:42:27.090Z,100568.36
2018-11-21T00:44:58.152Z,100571.12
2018-11-21T00:47:27.000Z,100563.38
2018-11-21T00:49:56.734Z,100572.81
2018-11-21T00:52:29.517Z,100579.61
2018-11-21T00:55:02.425Z,100582.73
2018-11-21T00:57:32.486Z,100582.49
2018-11-21T01:00:15.645Z,100593.98
2018-11-21T01:02:45.573Z,100595.47
2018-11-21T01:05:15.327Z,100594.28
2018-11-21T01:07:47.249Z,100602.75
2018-11-21T01:10:20.671Z,100604.76
2018-11-21T01:12:54.721Z,100604.80
2018-11-21T01:15:28.825Z,100608.33
2018-11-21T01:18:01.704Z,100611.91
2018-11-21T01:20:37.789Z,100611.40
2018-11-21T01:23:08.622Z,100609.16
2018-11-21T01:25:41.275Z,100609.13
2018-11-21T01:28:10.643Z,100620.11
2018-11-21T01:30:42.341Z,100632.01
2018-11-21T01:33:14.366Z,100638.30
2018-11-21T01:35:46.247Z,100636.77
2018-11-21T01:38:16.665Z,100627.13
2018-11-21T01:40:46.246Z,100628.25
2018-11-21T01:43:16.300Z,100632.22
2018-11-21T01:45:47.905Z,100639.95
2018-11-21T01:48:18.311Z,100633.46
2018-11-21T01:50:54.757Z,100639.17
2018-11-21T01:53:24.826Z,100647.20
2018-11-21T01:55:54.543Z,100652.53
2018-11-21T01:58:31.179Z,100655.88
2018-11-21T02:01:01.944Z,100660.73
2018-11-21T02:03:39.265Z,100658.19
2018-11-21T02:06:10.062Z,100671.45
2018-11-21T02:08:40.082Z,100663.11
2018-11-21T02:11:10.054Z,100665.89
2018-11-21T02:13:41.395Z,100669.61
2018-11-21T02:16:12.830Z,100664.19
2018-11-21T02:18:42.081Z,100674.19
2018-11-21T02:21:11.649Z,100676.05
2018-11-21T02:23:40.961Z,100684.45
2018-11-21T02:26:11.732Z,100674.11
2018-11-21T02:28:41.836Z,100675.30
2018-11-21T02:31:16.218Z,100606.56
2018-11-21T02:33:46.200Z,100694.98
2018-11-21T02:36:16.010Z,100688.47
2018-11-21T02:38:45.498Z,100681.97
2018-11-21T02:41:15.090Z,100681.91
2018-11-21T02:43:44.191Z,100694.22
2018-11-21T02:46:14.288Z,100691.20
2018-11-21T02:48:46.062Z,100698.81
2018-11-21T02:51:16.764Z,100697.81
2018-11-21T02:53:56.293Z,100693.98
2018-11-21T02:57:02.959Z,100701.87
2018-11-21T02:59:32.448Z,100707.06
2018-11-21T03:02:01.714Z,100711.03
2018-11-21T03:04:31.324Z,100712.59
2018-11-21T03:07:01.548Z,100712.64
2018-11-21T03:09:31.149Z,100718.69
2018-11-21T03:12:00.445Z,100724.87
2018-11-21T03:14:30.268Z,100725.23
2018-11-21T03:17:00.722Z,100731.43
2018-11-21T03:19:30.709Z,100741.52
2018-11-21T03:22:01.140Z,100736.84
2018-11-21T03:24:30.653Z,100733.36
2018-11-21T03:27:03.582Z,100739.22
2018-11-21T03:29:38.438Z,100739.35
2018-11-21T03:32:08.074Z,100739.22
2018-11-21T03:34:44.506Z,100739.50
2018-11-21T03:37:21.083Z,100746.58
2018-11-21T03:39:54.150Z,100753.81
2018-11-21T03:42:26.563Z,100760.09
2018-11-21T03:45:20.684Z,100777.92
2018-11-21T03:50:55.861Z,100779.25
2018-11-21T03:53:59.231Z,100784.63
2018-11-21T03:56:57.576Z,100769.47
2018-11-21T04:02:16.728Z,100775.55
2018-11-21T04:04:46.664Z,100778.41
2018-11-21T04:07:36.839Z,100773.80
2018-11-21T04:10:46.916Z,100767.67
2018-11-21T04:13:17.726Z,100781.27
2018-11-21T04:16:05.810Z,100781.79
2018-11-21T04:18:35.603Z,100785.12
2018-11-21T04:21:53.063Z,100785.36
2018-11-21T04:37:08.742Z,100829.95
2018-11-21T04:39:38.095Z,100844.91
2018-11-21T04:42:07.305Z,100841.89
2018-11-21T04:44:39.195Z,100841.89
2018-11-21T04:47:14.044Z,100835.36
2018-11-21T04:49:50.971Z,100831.39
2018-11-21T04:56:01.064Z,100827.59
2018-11-21T04:58:33.292Z,100843.91
2018-11-21T05:01:10.112Z,100846.71
2018-11-21T05:03:40.808Z,100850.89
2018-11-21T05:06:10.080Z,100856.80
2018-11-21T05:08:41.047Z,100856.27
2018-11-21T05:11:11.130Z,100853.02
2018-11-21T05:13:42.921Z,100864.67
2018-11-21T05:16:13.161Z,100873.91
2018-11-21T05:18:42.883Z,100875.56
2018-11-21T05:21:13.344Z,100879.66
2018-11-21T05:23:43.096Z,100887.67
2018-11-21T05:26:13.045Z,100883.47
2018-11-21T05:28:42.408Z,100889.77
2018-11-21T05:31:12.058Z,100884.95
2018-11-21T05:33:41.632Z,100881.52
2018-11-21T05:36:11.190Z,100892.27
2018-11-21T05:38:54.674Z,100887.42
2018-11-21T05:41:24.072Z,100889.43
2018-11-21T05:44:02.699Z,100896.71
2018-11-21T05:46:41.849Z,100889.94
2018-11-21T05:49:11.625Z,100890.02
2018-11-21T05:51:41.525Z,100884.30
2018-11-21T05:54:11.510Z,100883.63
2018-11-21T05:56:44.411Z,100885.39
2018-11-21T05:59:13.914Z,100883.04
2018-11-21T06:01:45.077Z,100893.38
2018-11-21T06:04:19.342Z,100898.11
2018-11-21T06:06:49.355Z,100903.92
2018-11-21T06:09:18.538Z,100920.20
2018-11-21T06:11:54.882Z,100919.11
2018-11-21T06:14:32.964Z,100930.47
2018-11-21T06:17:02.192Z,100936.30
2018-11-21T06:19:33.387Z,100934.98
2018-11-21T06:22:02.673Z,100925.27
2018-11-21T06:24:35.110Z,100886.23
2018-11-21T06:27:06.193Z,100929.95
2018-11-21T06:29:42.934Z,100931.11
2018-11-21T06:32:20.065Z,100847.14
2018-11-21T06:34:52.697Z,100940.41
2018-11-21T06:37:29.922Z,100935.61
2018-11-21T06:40:00.942Z,100946.54
2018-11-21T06:42:39.852Z,100947.20
2018-11-21T06:45:13.712Z,100951.45
2018-11-21T06:47:48.156Z,100957.38
2018-11-21T06:50:22.754Z,100962.31
2018-11-21T06:52:52.555Z,100969.20
2018-11-21T06:55:24.206Z,100972.81
2018-11-21T06:57:55.727Z,100976.14
2018-11-21T07:00:27.857Z,100977.07
2018-11-21T07:03:09.682Z,100977.14
2018-11-21T07:05:40.655Z,100975.05
2018-11-21T07:08:11.718Z,100967.41
2018-11-21T07:10:41.092Z,100967.37
2018-11-21T07:13:11.755Z,100975.90
2018-11-21T07:15:44.448Z,100977.76
2018-11-21T07:18:27.724Z,100988.81
2018-11-21T07:20:59.565Z,100990.20
2018-11-21T07:23:41.193Z,100996.80
2018-11-21T07:26:10.420Z,101001.41
2018-11-21T07:28:43.288Z,101000.75
2018-11-21T07:31:13.678Z,101019.19
2018-11-21T07:33:46.506Z,101022.17
2018-11-21T07:36:14.674Z,101024.80
2018-11-21T07:41:33.724Z,101028.84
2018-11-21T07:44:23.353Z,101033.37
2018-11-21T07:47:05.412Z,101032.78
2018-11-21T07:49:54.588Z,101037.42
2018-11-21T07:52:44.378Z,101036.20
2018-11-21T07:55:33.134Z,101039.95
2018-11-21T07:58:24.189Z,101032.88
2018-11-21T08:01:21.575Z,101035.70
2018-11-21T08:04:03.234Z,101051.52
2018-11-21T08:06:36.761Z,101047.30
2018-11-21T08:09:40.312Z,101057.02
2018-11-21T08:12:42.746Z,101061.72
2018-11-21T08:15:50.579Z,101065.51
2018-11-21T08:25:12.954Z,101073.13
2018-11-21T08:28:16.569Z,101080.20
2018-11-21T08:31:30.441Z,101082.28
2018-11-21T08:34:39.806Z,101084.01
2018-11-21T08:37:14.394Z,101095.33
2018-11-21T08:39:46.024Z,101082.99
2018-11-21T08:42:20.961Z,101085.75
2018-11-21T08:45:14.299Z,101084.73
2018-11-21T08:48:24.924Z,101090.59
2018-11-21T08:50:52.130Z,101089.92
2018-11-21T08:53:22.137Z,101091.89
2018-11-21T08:55:52.825Z,101094.13
2018-11-21T08:58:30.106Z,101107.61
2018-11-21T09:13:19.509Z,101135.35
2018-11-21T09:16:08.060Z,101132.57
2018-11-21T09:18:49.581Z,101131.56
2018-11-21T09:21:38.237Z,101135.05
2018-11-21T09:24:08.522Z,101146.50
2018-11-21T09:26:56.868Z,101147.05
2018-11-21T09:30:07.702Z,101149.42
2018-11-21T09:32:56.113Z,101154.26
2018-11-21T09:35:40.453Z,101158.98
2018-11-21T09:38:29.638Z,101149.39
2018-11-21T09:50:33.264Z,101188.00
2018-11-21T09:53:14.060Z,101187.58
2018-11-21T09:59:50.529Z,101197.25
2018-11-21T10:06:40.067Z,101190.99
2018-11-21T10:09:47.816Z,101193.75
2018-11-21T10:12:37.293Z,101199.31
2018-11-21T10:15:18.246Z,101203.99
2018-11-21T10:18:31.603Z,101203.42
2018-11-21T10:24:23.848Z,101211.03
2018-11-21T10:27:31.341Z,101201.64
2018-11-21T10:33:28.854Z,101190.62
2018-11-21T10:36:03.755Z,101188.11
2018-11-21T10:41:56.016Z,101185.16
2018-11-21T10:48:16.217Z,101186.90
2018-11-21T10:53:47.622Z,101174.97
2018-11-21T10:56:23.695Z,101178.05
2018-11-21T10:58:55.709Z,101181.48
2018-11-21T11:02:02.905Z,101188.23
2018-11-21T11:05:30.522Z,101180.51
2018-11-21T11:09:00.298Z,101191.38
2018-11-21T11:15:15.528Z,101195.05
2018-11-21T11:21:41.117Z,101187.53
2018-11-21T11:28:06.162Z,101213.34
2018-11-21T11:31:38.091Z,101210.70
2018-11-21T11:35:12.589Z,101213.14
2018-11-21T11:38:47.286Z,101203.20
2018-11-21T11:51:29.046Z,101206.16
2018-11-21T11:54:25.622Z,101204.92
2018-11-21T11:57:20.574Z,101208.30
2018-11-21T12:00:18.902Z,101204.53
2018-11-21T12:06:31.149Z,101204.41
2018-11-21T12:09:29.762Z,101209.45
2018-11-21T12:12:21.495Z,101206.87
2018-11-21T12:18:38.203Z,101214.27
2018-11-21T12:21:45.733Z,101215.64
2018-11-21T12:24:55.354Z,101217.43
2018-11-21T12:27:49.289Z,101214.73
2018-11-21T12:30:59.407Z,101213.88
2018-11-21T12:34:10.315Z,101207.64
2018-11-21T12:37:02.549Z,101203.91
2018-11-21T12:39:53.787Z,101203.06
2018-11-21T12:42:41.296Z,101199.61
2018-11-21T12:45:59.084Z,101207.22
2018-11-21T12:49:01.553Z,101200.31
2018-11-21T12:52:31.625Z,101199.98
2018-11-21T12:55:52.976Z,101211.64
2018-11-21T12:58:45.449Z,101210.19
2018-11-21T13:01:53.688Z,101199.94
2018-11-21T13:04:54.477Z,101195.70
2018-11-21T13:07:49.712Z,101117.84
2018-11-21T13:10:59.686Z,101203.55
2018-11-21T13:13:53.087Z,101194.88
2018-11-21T13:17:01.496Z,101203.33
2018-11-21T13:20:09.865Z,101193.53
2018-11-21T13:23:07.890Z,101201.25
2018-11-21T13:25:58.200Z,101202.55
2018-11-21T13:28:45.888Z,101207.44
2018-11-21T13:31:53.676Z,101207.31
2018-11-21T13:35:01.019Z,101210.70
2018-11-21T13:38:08.351Z,101205.05
2018-11-21T13:44:27.100Z,101200.95
2018-11-21T13:47:17.155Z,101210.55
2018-11-21T13:50:21.220Z,101201.78
2018-11-21T13:53:28.832Z,101209.05
2018-11-21T14:03:01.310Z,101217.14
2018-11-21T14:05:34.791Z,101211.09
2018-11-21T14:08:14.528Z,101200.28
2018-11-21T14:10:52.289Z,101196.93
2018-11-21T14:13:26.373Z,101199.21
2018-11-21T14:16:33.907Z,101208.56
2018-11-21T14:19:10.871Z,101214.11
2018-11-21T14:21:38.655Z,101226.47
2018-11-21T14:24:13.976Z,101224.84
2018-11-21T14:26:50.569Z,101224.53
2018-11-21T14:29:31.751Z,101219.05
2018-11-21T14:32:24.208Z,101213.57
2018-11-21T14:35:06.774Z,101211.42
2018-11-21T14:41:14.767Z,101236.00
2018-11-21T14:43:58.586Z,101252.83
2018-11-21T14:47:08.415Z,101247.42
2018-11-21T14:49:58.463Z,101248.62
2018-11-21T14:52:48.006Z,101258.45
2018-11-21T14:55:18.295Z,101265.19
2018-11-21T14:57:50.598Z,101262.90
2018-11-21T15:03:47.948Z,101264.63
2018-11-21T15:06:24.411Z,101266.80
2018-11-21T15:08:57.353Z,101271.89
2018-11-21T15:11:55.819Z,101269.38
2018-11-21T15:18:07.372Z,101270.16
2018-11-21T15:21:16.669Z,101288.97
2018-11-21T15:24:19.670Z,101285.69
2018-11-21T15:27:21.310Z,101284.14
2018-11-21T15:30:00.081Z,101277.07
